sensor_id;sensor_type;location;lat;lon;timestamp;temperature;humidity
3940;DHT22;1984;48.312;9.244;2022-12-31T00:01:47;9.50;99.90
3940;DHT22;1984;48.312;9.244;2022-12-31T00:04:13;9.60;99.90
3940;DHT22;1984;48.312;9.244;2022-12-31T00:06:39;9.50;99.90
3940;DHT22;1984;48.312;9.244;2022-12-31T00:09:06;9.50;99.90
3940;DHT22;1984;48.312;9.244;2022-12-31T00:11:33;9.50;99.90
3940;DHT22;1984;48.312;9.244;2022-12-31T00:13:59;9.50;99.90
3940;DHT22;1984;48.312;9.244;2022-12-31T00:16:31;9.50;99.90
3940;DHT22;1984;48.312;9.244;2022-12-31T00:18:58;9.50;99.90
3940;DHT22;1984;48.312;9.244;2022-12-31T00:21:24;9.50;99.90
3940;DHT22;1984;48.312;9.244;2022-12-31T00:23:51;9.50;99.90
3940;DHT22;1984;48.312;9.244;2022-12-31T00:26:18;9.50;99.90
3940;DHT22;1984;48.312;9.244;2022-12-31T00:28:45;9.50;99.90
3940;DHT22;1984;48.312;9.244;2022-12-31T00:31:14;9.60;99.90
3940;DHT22;1984;48.312;9.244;2022-12-31T00:33:40;9.60;99.90
3940;DHT22;1984;48.312;9.244;2022-12-31T00:36:12;9.60;99.90
3940;DHT22;1984;48.312;9.244;2022-12-31T00:38:40;9.70;99.90
3940;DHT22;1984;48.312;9.244;2022-12-31T00:41:06;9.70;99.90
3940;DHT22;1984;48.312;9.244;2022-12-31T00:43:32;9.70;99.90
3940;DHT22;1984;48.312;9.244;2022-12-31T00:45:58;9.80;99.90
3940;DHT22;1984;48.312;9.244;2022-12-31T00:48:24;9.80;99.90
3940;DHT22;1984;48.312;9.244;2022-12-31T00:50:50;9.90;99.90
3940;DHT22;1984;48.312;9.244;2022-12-31T00:53:16;9.90;99.90
3940;DHT22;1984;48.312;9.244;2022-12-31T00:55:41;9.90;99.90
3940;DHT22;1984;48.312;9.244;2022-12-31T00:58:07;10.00;99.90
3940;DHT22;1984;48.312;9.244;2022-12-31T01:00:32;10.00;99.90
3940;DHT22;1984;48.312;9.244;2022-12-31T01:02:58;10.00;99.90
3940;DHT22;1984;48.312;9.244;2022-12-31T01:05:23;10.00;99.90
3940;DHT22;1984;48.312;9.244;2022-12-31T01:07:49;10.00;99.90
3940;DHT22;1984;48.312;9.244;2022-12-31T01:10:14;10.00;99.90
3940;DHT22;1984;48.312;9.244;2022-12-31T01:13:03;10.00;99.90
3940;DHT22;1984;48.312;9.244;2022-12-31T01:15:35;10.00;99.90
3940;DHT22;1984;48.312;9.244;2022-12-31T01:18:03;10.10;99.90
3940;DHT22;1984;48.312;9.244;2022-12-31T01:20:29;10.00;99.90
3940;DHT22;1984;48.312;9.244;2022-12-31T01:22:54;10.10;99.90
3940;DHT22;1984;48.312;9.244;2022-12-31T01:25:20;10.10;99.90
3940;DHT22;1984;48.312;9.244;2022-12-31T01:27:46;10.10;99.90
3940;DHT22;1984;48.312;9.244;2022-12-31T01:30:11;10.10;99.90
3940;DHT22;1984;48.312;9.244;2022-12-31T01:32:37;10.10;99.90
3940;DHT22;1984;48.312;9.244;2022-12-31T01:35:03;10.00;99.90
3940;DHT22;1984;48.312;9.244;2022-12-31T01:37:28;10.00;99.90
3940;DHT22;1984;48.312;9.244;2022-12-31T01:39:54;10.00;99.90
3940;DHT22;1984;48.312;9.244;2022-12-31T01:42:19;9.90;99.90
3940;DHT22;1984;48.312;9.244;2022-12-31T01:44:51;9.90;99.90
3940;DHT22;1984;48.312;9.244;2022-12-31T01:47:24;9.90;99.90
3940;DHT22;1984;48.312;9.244;2022-12-31T01:49:56;9.90;99.90
3940;DHT22;1984;48.312;9.244;2022-12-31T01:52:27;9.80;99.90
3940;DHT22;1984;48.312;9.244;2022-12-31T01:54:57;9.80;99.90
3940;DHT22;1984;48.312;9.244;2022-12-31T01:57:24;9.70;99.90
3940;DHT22;1984;48.312;9.244;2022-12-31T01:59:51;9.70;99.90
3940;DHT22;1984;48.312;9.244;2022-12-31T02:02:17;9.70;99.90
3940;DHT22;1984;48.312;9.244;2022-12-31T02:04:43;9.70;99.90
3940;DHT22;1984;48.312;9.244;2022-12-31T02:07:11;9.70;99.90
3940;DHT22;1984;48.312;9.244;2022-12-31T02:09:39;9.70;99.90
3940;DHT22;1984;48.312;9.244;2022-12-31T02:12:06;9.70;99.90
3940;DHT22;1984;48.312;9.244;2022-12-31T02:14:35;9.70;99.90
3940;DHT22;1984;48.312;9.244;2022-12-31T02:20:06;9.80;99.90
3940;DHT22;1984;48.312;9.244;2022-12-31T02:26:06;9.80;99.90
3940;DHT22;1984;48.312;9.244;2022-12-31T02:32:35;9.80;99.90
3940;DHT22;1984;48.312;9.244;2022-12-31T02:34:54;9.80;99.90
3940;DHT22;1984;48.312;9.244;2022-12-31T02:37:23;9.80;99.90
3940;DHT22;1984;48.312;9.244;2022-12-31T02:39:49;9.90;99.90
3940;DHT22;1984;48.312;9.244;2022-12-31T02:42:15;9.90;99.90
3940;DHT22;1984;48.312;9.244;2022-12-31T02:44:41;10.00;99.90
3940;DHT22;1984;48.312;9.244;2022-12-31T02:52:38;9.90;99.90
3940;DHT22;1984;48.312;9.244;2022-12-31T02:55:15;9.90;99.90
3940;DHT22;1984;48.312;9.244;2022-12-31T03:00:30;9.90;99.90
3940;DHT22;1984;48.312;9.244;2022-12-31T03:03:17;10.00;99.90
3940;DHT22;1984;48.312;9.244;2022-12-31T03:05:44;10.00;99.90
3940;DHT22;1984;48.312;9.244;2022-12-31T03:08:23;10.00;99.90
3940;DHT22;1984;48.312;9.244;2022-12-31T03:10:49;10.00;99.90
3940;DHT22;1984;48.312;9.244;2022-12-31T03:13:16;10.00;99.90
3940;DHT22;1984;48.312;9.244;2022-12-31T03:15:41;10.00;99.90
3940;DHT22;1984;48.312;9.244;2022-12-31T03:18:12;10.00;99.90
3940;DHT22;1984;48.312;9.244;2022-12-31T03:20:42;10.10;99.90
3940;DHT22;1984;48.312;9.244;2022-12-31T03:25:57;10.10;99.90
3940;DHT22;1984;48.312;9.244;2022-12-31T03:28:26;10.20;99.90
3940;DHT22;1984;48.312;9.244;2022-12-31T03:30:57;10.20;99.90
3940;DHT22;1984;48.312;9.244;2022-12-31T03:33:23;10.20;99.90
3940;DHT22;1984;48.312;9.244;2022-12-31T03:35:50;10.20;99.90
3940;DHT22;1984;48.312;9.244;2022-12-31T03:38:16;10.20;99.90
3940;DHT22;1984;48.312;9.244;2022-12-31T03:40:45;10.20;99.90
3940;DHT22;1984;48.312;9.244;2022-12-31T03:43:11;10.20;99.90
3940;DHT22;1984;48.312;9.244;2022-12-31T03:45:37;10.20;99.90
3940;DHT22;1984;48.312;9.244;2022-12-31T03:48:04;10.30;99.90
3940;DHT22;1984;48.312;9.244;2022-12-31T03:50:31;10.30;99.90
3940;DHT22;1984;48.312;9.244;2022-12-31T03:52:57;10.30;99.90
3940;DHT22;1984;48.312;9.244;2022-12-31T03:55:23;10.30;99.90
3940;DHT22;1984;48.312;9.244;2022-12-31T03:57:48;10.20;99.90
3940;DHT22;1984;48.312;9.244;2022-12-31T04:00:16;10.30;99.90
3940;DHT22;1984;48.312;9.244;2022-12-31T04:02:43;10.30;99.90
3940;DHT22;1984;48.312;9.244;2022-12-31T04:05:09;10.20;99.90
3940;DHT22;1984;48.312;9.244;2022-12-31T04:07:35;10.20;99.90
3940;DHT22;1984;48.312;9.244;2022-12-31T04:10:02;10.20;99.90
3940;DHT22;1984;48.312;9.244;2022-12-31T04:12:28;10.20;99.90
3940;DHT22;1984;48.312;9.244;2022-12-31T04:14:53;10.20;99.90
3940;DHT22;1984;48.312;9.244;2022-12-31T04:17:19;10.20;99.90
3940;DHT22;1984;48.312;9.244;2022-12-31T04:19:45;10.10;99.90
3940;DHT22;1984;48.312;9.244;2022-12-31T04:22:10;10.20;99.90
3940;DHT22;1984;48.312;9.244;2022-12-31T04:24:36;10.10;99.90
3940;DHT22;1984;48.312;9.244;2022-12-31T04:27:01;10.10;99.90
3940;DHT22;1984;48.312;9.244;2022-12-31T04:29:27;10.20;99.90
3940;DHT22;1984;48.312;9.244;2022-12-31T04:31:53;10.20;99.90
3940;DHT22;1984;48.312;9.244;2022-12-31T04:34:18;10.20;99.90
3940;DHT22;1984;48.312;9.244;2022-12-31T04:36:44;10.20;99.90
3940;DHT22;1984;48.312;9.244;2022-12-31T04:39:09;10.20;99.90
3940;DHT22;1984;48.312;9.244;2022-12-31T04:41:35;10.20;99.90
3940;DHT22;1984;48.312;9.244;2022-12-31T04:44:00;10.20;99.90
3940;DHT22;1984;48.312;9.244;2022-12-31T04:46:31;10.30;99.90
3940;DHT22;1984;48.312;9.244;2022-12-31T04:48:57;10.30;99.90
3940;DHT22;1984;48.312;9.244;2022-12-31T04:51:24;10.30;99.90
3940;DHT22;1984;48.312;9.244;2022-12-31T04:53:50;10.30;99.90
3940;DHT22;1984;48.312;9.244;2022-12-31T04:56:16;10.30;99.90
3940;DHT22;1984;48.312;9.244;2022-12-31T04:58:42;10.30;99.90
3940;DHT22;1984;48.312;9.244;2022-12-31T05:01:08;10.30;99.90
3940;DHT22;1984;48.312;9.244;2022-12-31T05:03:34;10.30;99.90
3940;DHT22;1984;48.312;9.244;2022-12-31T05:06:10;10.30;99.90
3940;DHT22;1984;48.312;9.244;2022-12-31T05:08:36;10.30;99.90
3940;DHT22;1984;48.312;9.244;2022-12-31T05:11:01;10.30;99.90
3940;DHT22;1984;48.312;9.244;2022-12-31T05:13:27;10.20;99.90
3940;DHT22;1984;48.312;9.244;2022-12-31T05:15:53;10.20;99.90
3940;DHT22;1984;48.312;9.244;2022-12-31T05:18:20;10.20;99.90
3940;DHT22;1984;48.312;9.244;2022-12-31T05:20:46;10.20;99.90
3940;DHT22;1984;48.312;9.244;2022-12-31T05:23:12;10.20;99.90
3940;DHT22;1984;48.312;9.244;2022-12-31T05:25:38;10.20;99.90
3940;DHT22;1984;48.312;9.244;2022-12-31T05:28:04;10.20;99.90
3940;DHT22;1984;48.312;9.244;2022-12-31T05:30:30;10.10;99.90
3940;DHT22;1984;48.312;9.244;2022-12-31T05:32:55;10.10;99.90
3940;DHT22;1984;48.312;9.244;2022-12-31T05:35:21;10.00;99.90
3940;DHT22;1984;48.312;9.244;2022-12-31T05:37:46;10.00;99.90
3940;DHT22;1984;48.312;9.244;2022-12-31T05:40:12;10.00;99.90
3940;DHT22;1984;48.312;9.244;2022-12-31T05:42:38;10.00;99.90
3940;DHT22;1984;48.312;9.244;2022-12-31T05:45:04;9.90;99.90
3940;DHT22;1984;48.312;9.244;2022-12-31T05:47:30;9.90;99.90
3940;DHT22;1984;48.312;9.244;2022-12-31T05:49:55;9.90;99.90
3940;DHT22;1984;48.312;9.244;2022-12-31T05:52:21;9.90;99.90
3940;DHT22;1984;48.312;9.244;2022-12-31T05:54:47;9.90;99.90
3940;DHT22;1984;48.312;9.244;2022-12-31T05:57:12;9.80;99.90
3940;DHT22;1984;48.312;9.244;2022-12-31T05:59:38;9.80;99.90
3940;DHT22;1984;48.312;9.244;2022-12-31T06:02:03;9.80;99.90
3940;DHT22;1984;48.312;9.244;2022-12-31T06:04:29;9.70;99.90
3940;DHT22;1984;48.312;9.244;2022-12-31T06:06:55;9.70;99.90
3940;DHT22;1984;48.312;9.244;2022-12-31T06:09:20;9.70;99.90
3940;DHT22;1984;48.312;9.244;2022-12-31T06:11:46;9.70;99.90
3940;DHT22;1984;48.312;9.244;2022-12-31T06:14:12;9.70;99.90
3940;DHT22;1984;48.312;9.244;2022-12-31T06:16:39;9.70;99.90
3940;DHT22;1984;48.312;9.244;2022-12-31T06:19:05;9.70;99.90
3940;DHT22;1984;48.312;9.244;2022-12-31T06:21:30;9.70;99.90
3940;DHT22;1984;48.312;9.244;2022-12-31T06:23:56;9.70;99.90
3940;DHT22;1984;48.312;9.244;2022-12-31T06:26:23;9.70;99.90
3940;DHT22;1984;48.312;9.244;2022-12-31T06:28:49;9.70;99.90
3940;DHT22;1984;48.312;9.244;2022-12-31T06:31:14;9.70;99.90
3940;DHT22;1984;48.312;9.244;2022-12-31T06:33:40;9.70;99.90
3940;DHT22;1984;48.312;9.244;2022-12-31T06:36:08;9.70;99.90
3940;DHT22;1984;48.312;9.244;2022-12-31T06:38:37;9.70;99.90
3940;DHT22;1984;48.312;9.244;2022-12-31T06:41:08;9.70;99.90
3940;DHT22;1984;48.312;9.244;2022-12-31T06:43:38;9.70;99.90
3940;DHT22;1984;48.312;9.244;2022-12-31T06:46:06;9.70;99.90
3940;DHT22;1984;48.312;9.244;2022-12-31T06:48:32;9.70;99.90
3940;DHT22;1984;48.312;9.244;2022-12-31T06:51:16;9.70;99.90
3940;DHT22;1984;48.312;9.244;2022-12-31T06:53:42;9.60;99.90
3940;DHT22;1984;48.312;9.244;2022-12-31T06:56:13;9.70;99.90
3940;DHT22;1984;48.312;9.244;2022-12-31T06:58:39;9.60;99.90
3940;DHT22;1984;48.312;9.244;2022-12-31T07:04:46;9.60;99.90
3940;DHT22;1984;48.312;9.244;2022-12-31T07:15:18;9.60;99.90
3940;DHT22;1984;48.312;9.244;2022-12-31T07:18:06;9.60;99.90
3940;DHT22;1984;48.312;9.244;2022-12-31T07:20:38;9.60;99.90
3940;DHT22;1984;48.312;9.244;2022-12-31T07:23:03;9.70;99.90
3940;DHT22;1984;48.312;9.244;2022-12-31T07:25:29;9.70;99.90
3940;DHT22;1984;48.312;9.244;2022-12-31T07:28:19;9.70;99.90
3940;DHT22;1984;48.312;9.244;2022-12-31T07:30:58;9.80;99.90
3940;DHT22;1984;48.312;9.244;2022-12-31T07:33:47;9.80;99.90
3940;DHT22;1984;48.312;9.244;2022-12-31T07:36:34;9.80;99.90
3940;DHT22;1984;48.312;9.244;2022-12-31T07:39:13;9.90;99.90
3940;DHT22;1984;48.312;9.244;2022-12-31T07:42:20;9.90;99.90
3940;DHT22;1984;48.312;9.244;2022-12-31T07:47:24;10.00;99.90
3940;DHT22;1984;48.312;9.244;2022-12-31T07:49:50;9.90;99.90
3940;DHT22;1984;48.312;9.244;2022-12-31T07:52:16;9.90;99.90
3940;DHT22;1984;48.312;9.244;2022-12-31T07:54:42;9.90;99.90
3940;DHT22;1984;48.312;9.244;2022-12-31T07:57:12;10.00;99.90
3940;DHT22;1984;48.312;9.244;2022-12-31T08:00:03;10.00;99.90
3940;DHT22;1984;48.312;9.244;2022-12-31T08:05:26;10.60;99.90
3940;DHT22;1984;48.312;9.244;2022-12-31T08:10:56;11.00;99.90
3940;DHT22;1984;48.312;9.244;2022-12-31T08:13:24;11.90;99.90
3940;DHT22;1984;48.312;9.244;2022-12-31T08:15:50;13.10;99.90
3940;DHT22;1984;48.312;9.244;2022-12-31T08:18:16;14.20;99.90
3940;DHT22;1984;48.312;9.244;2022-12-31T08:23:48;15.90;99.90
3940;DHT22;1984;48.312;9.244;2022-12-31T08:26:31;16.40;99.90
3940;DHT22;1984;48.312;9.244;2022-12-31T08:31:58;17.20;99.90
3940;DHT22;1984;48.312;9.244;2022-12-31T08:34:36;17.40;99.90
3940;DHT22;1984;48.312;9.244;2022-12-31T08:37:05;17.00;99.90
3940;DHT22;1984;48.312;9.244;2022-12-31T08:42:00;17.60;99.90
3940;DHT22;1984;48.312;9.244;2022-12-31T08:44:39;17.80;99.90
3940;DHT22;1984;48.312;9.244;2022-12-31T08:49:48;18.70;99.90
3940;DHT22;1984;48.312;9.244;2022-12-31T08:52:23;19.00;99.90
3940;DHT22;1984;48.312;9.244;2022-12-31T08:54:49;19.10;99.90
3940;DHT22;1984;48.312;9.244;2022-12-31T08:57:35;19.40;99.90
3940;DHT22;1984;48.312;9.244;2022-12-31T09:05:38;20.10;99.90
3940;DHT22;1984;48.312;9.244;2022-12-31T09:17:04;20.30;99.90
3940;DHT22;1984;48.312;9.244;2022-12-31T09:19:32;19.60;99.90
3940;DHT22;1984;48.312;9.244;2022-12-31T09:21:58;18.60;99.90
3940;DHT22;1984;48.312;9.244;2022-12-31T09:24:24;17.70;99.90
3940;DHT22;1984;48.312;9.244;2022-12-31T09:27:24;17.60;99.90
3940;DHT22;1984;48.312;9.244;2022-12-31T09:30:11;18.80;99.90
3940;DHT22;1984;48.312;9.244;2022-12-31T09:32:46;19.50;99.90
3940;DHT22;1984;48.312;9.244;2022-12-31T09:44:09;21.30;99.90
3940;DHT22;1984;48.312;9.244;2022-12-31T09:49:36;21.20;99.90
3940;DHT22;1984;48.312;9.244;2022-12-31T10:03:41;21.30;99.90
3940;DHT22;1984;48.312;9.244;2022-12-31T10:06:23;21.50;99.90
3940;DHT22;1984;48.312;9.244;2022-12-31T10:14:51;20.70;99.90
3940;DHT22;1984;48.312;9.244;2022-12-31T10:20:15;21.40;99.90
3940;DHT22;1984;48.312;9.244;2022-12-31T10:28:30;22.50;99.90
3940;DHT22;1984;48.312;9.244;2022-12-31T10:31:14;22.90;99.90
3940;DHT22;1984;48.312;9.244;2022-12-31T10:34:15;23.80;99.90
3940;DHT22;1984;48.312;9.244;2022-12-31T10:36:51;24.00;99.90
3940;DHT22;1984;48.312;9.244;2022-12-31T10:39:27;24.20;99.90
3940;DHT22;1984;48.312;9.244;2022-12-31T10:47:57;22.90;99.90
3940;DHT22;1984;48.312;9.244;2022-12-31T10:56:20;23.20;99.90
3940;DHT22;1984;48.312;9.244;2022-12-31T11:01:17;22.70;99.90
3940;DHT22;1984;48.312;9.244;2022-12-31T11:03:54;22.20;99.90
3940;DHT22;1984;48.312;9.244;2022-12-31T11:14:37;20.90;99.90
3940;DHT22;1984;48.312;9.244;2022-12-31T11:17:20;20.90;99.90
3940;DHT22;1984;48.312;9.244;2022-12-31T11:26:05;20.60;99.90
3940;DHT22;1984;48.312;9.244;2022-12-31T11:28:46;20.60;99.90
3940;DHT22;1984;48.312;9.244;2022-12-31T11:44:48;19.30;99.90
3940;DHT22;1984;48.312;9.244;2022-12-31T12:00:29;19.00;99.90
3940;DHT22;1984;48.312;9.244;2022-12-31T12:03:04;18.80;99.90
3940;DHT22;1984;48.312;9.244;2022-12-31T12:05:31;18.60;99.90
3940;DHT22;1984;48.312;9.244;2022-12-31T12:07:58;18.40;99.90
3940;DHT22;1984;48.312;9.244;2022-12-31T12:10:51;18.30;99.90
3940;DHT22;1984;48.312;9.244;2022-12-31T12:13:24;17.90;99.90
3940;DHT22;1984;48.312;9.244;2022-12-31T12:15:53;17.70;99.90
3940;DHT22;1984;48.312;9.244;2022-12-31T12:20:50;17.40;99.90
3940;DHT22;1984;48.312;9.244;2022-12-31T12:23:21;17.20;99.90
3940;DHT22;1984;48.312;9.244;2022-12-31T12:25:48;17.20;99.90
3940;DHT22;1984;48.312;9.244;2022-12-31T12:33:44;16.90;99.90
3940;DHT22;1984;48.312;9.244;2022-12-31T12:36:12;16.70;99.90
3940;DHT22;1984;48.312;9.244;2022-12-31T12:38:39;16.60;99.90
3940;DHT22;1984;48.312;9.244;2022-12-31T12:41:10;16.50;99.90
3940;DHT22;1984;48.312;9.244;2022-12-31T12:43:37;16.60;99.90
3940;DHT22;1984;48.312;9.244;2022-12-31T12:46:19;16.50;99.90
3940;DHT22;1984;48.312;9.244;2022-12-31T12:48:47;16.50;99.90
3940;DHT22;1984;48.312;9.244;2022-12-31T12:54:27;16.40;99.90
3940;DHT22;1984;48.312;9.244;2022-12-31T13:07:51;15.70;99.90
3940;DHT22;1984;48.312;9.244;2022-12-31T13:13:45;15.70;99.90
3940;DHT22;1984;48.312;9.244;2022-12-31T13:16:43;15.70;99.90
3940;DHT22;1984;48.312;9.244;2022-12-31T13:27:43;15.60;99.90
3940;DHT22;1984;48.312;9.244;2022-12-31T13:30:33;15.50;99.90
3940;DHT22;1984;48.312;9.244;2022-12-31T13:33:04;15.30;99.90
3940;DHT22;1984;48.312;9.244;2022-12-31T13:35:45;15.20;99.90
3940;DHT22;1984;48.312;9.244;2022-12-31T13:38:23;15.20;99.90
3940;DHT22;1984;48.312;9.244;2022-12-31T13:41:16;15.20;99.90
3940;DHT22;1984;48.312;9.244;2022-12-31T13:46:43;15.00;99.90
3940;DHT22;1984;48.312;9.244;2022-12-31T13:49:44;15.00;99.90
3940;DHT22;1984;48.312;9.244;2022-12-31T13:54:42;14.80;99.90
3940;DHT22;1984;48.312;9.244;2022-12-31T13:57:22;14.80;99.90
3940;DHT22;1984;48.312;9.244;2022-12-31T13:59:56;14.60;99.90
3940;DHT22;1984;48.312;9.244;2022-12-31T14:02:42;14.60;99.90
3940;DHT22;1984;48.312;9.244;2022-12-31T14:05:16;14.60;99.90
3940;DHT22;1984;48.312;9.244;2022-12-31T14:07:54;14.50;99.90
3940;DHT22;1984;48.312;9.244;2022-12-31T14:10:28;14.50;99.90
3940;DHT22;1984;48.312;9.244;2022-12-31T14:13:21;14.40;99.90
3940;DHT22;1984;48.312;9.244;2022-12-31T14:21:43;14.00;99.90
3940;DHT22;1984;48.312;9.244;2022-12-31T14:26:58;13.80;99.90
3940;DHT22;1984;48.312;9.244;2022-12-31T14:35:00;13.70;99.90
3940;DHT22;1984;48.312;9.244;2022-12-31T14:37:35;13.60;99.90
3940;DHT22;1984;48.312;9.244;2022-12-31T14:46:00;13.50;99.90
3940;DHT22;1984;48.312;9.244;2022-12-31T14:50:52;13.50;99.90
3940;DHT22;1984;48.312;9.244;2022-12-31T14:53:23;13.40;99.90
3940;DHT22;1984;48.312;9.244;2022-12-31T14:56:23;13.30;99.90
3940;DHT22;1984;48.312;9.244;2022-12-31T14:58:56;13.20;99.90
3940;DHT22;1984;48.312;9.244;2022-12-31T15:01:22;13.10;99.90
3940;DHT22;1984;48.312;9.244;2022-12-31T15:03:51;13.10;99.90
3940;DHT22;1984;48.312;9.244;2022-12-31T15:09:01;13.00;99.90
3940;DHT22;1984;48.312;9.244;2022-12-31T15:19:51;12.70;99.90
3940;DHT22;1984;48.312;9.244;2022-12-31T15:22:45;12.60;99.90
3940;DHT22;1984;48.312;9.244;2022-12-31T15:25:25;12.50;99.90
3940;DHT22;1984;48.312;9.244;2022-12-31T15:27:52;12.50;99.90
3940;DHT22;1984;48.312;9.244;2022-12-31T15:30:40;12.50;99.90
3940;DHT22;1984;48.312;9.244;2022-12-31T15:33:19;12.40;99.90
3940;DHT22;1984;48.312;9.244;2022-12-31T15:35:49;12.40;99.90
3940;DHT22;1984;48.312;9.244;2022-12-31T15:38:28;12.30;99.90
3940;DHT22;1984;48.312;9.244;2022-12-31T15:40:54;12.30;99.90
3940;DHT22;1984;48.312;9.244;2022-12-31T15:43:27;12.20;99.90
3940;DHT22;1984;48.312;9.244;2022-12-31T15:45:54;12.10;99.90
3940;DHT22;1984;48.312;9.244;2022-12-31T15:48:30;12.00;99.90
3940;DHT22;1984;48.312;9.244;2022-12-31T15:50:58;12.00;99.90
3940;DHT22;1984;48.312;9.244;2022-12-31T15:53:32;12.00;99.90
3940;DHT22;1984;48.312;9.244;2022-12-31T15:55:59;11.90;99.90
3940;DHT22;1984;48.312;9.244;2022-12-31T15:58:30;11.90;99.90
3940;DHT22;1984;48.312;9.244;2022-12-31T16:01:22;11.90;99.90
3940;DHT22;1984;48.312;9.244;2022-12-31T16:04:00;11.90;99.90
3940;DHT22;1984;48.312;9.244;2022-12-31T16:06:31;11.90;99.90
3940;DHT22;1984;48.312;9.244;2022-12-31T16:08:57;11.80;99.90
3940;DHT22;1984;48.312;9.244;2022-12-31T16:11:24;11.80;99.90
3940;DHT22;1984;48.312;9.244;2022-12-31T16:13:52;11.80;99.90
3940;DHT22;1984;48.312;9.244;2022-12-31T16:16:28;11.70;99.90
3940;DHT22;1984;48.312;9.244;2022-12-31T16:18:54;11.70;99.90
3940;DHT22;1984;48.312;9.244;2022-12-31T16:21:37;11.60;99.90
3940;DHT22;1984;48.312;9.244;2022-12-31T16:26:50;11.60;99.90
3940;DHT22;1984;48.312;9.244;2022-12-31T16:29:18;11.50;99.90
3940;DHT22;1984;48.312;9.244;2022-12-31T16:31:46;11.50;99.90
3940;DHT22;1984;48.312;9.244;2022-12-31T16:34:16;11.40;99.90
3940;DHT22;1984;48.312;9.244;2022-12-31T16:36:41;11.40;99.90
3940;DHT22;1984;48.312;9.244;2022-12-31T16:39:27;11.30;99.90
3940;DHT22;1984;48.312;9.244;2022-12-31T16:44:31;11.30;99.90
3940;DHT22;1984;48.312;9.244;2022-12-31T16:46:59;11.30;99.90
3940;DHT22;1984;48.312;9.244;2022-12-31T16:49:27;11.20;99.90
3940;DHT22;1984;48.312;9.244;2022-12-31T16:51:59;11.20;99.90
3940;DHT22;1984;48.312;9.244;2022-12-31T16:54:33;11.10;99.90
3940;DHT22;1984;48.312;9.244;2022-12-31T16:57:00;11.10;99.90
3940;DHT22;1984;48.312;9.244;2022-12-31T16:59:38;11.10;99.90
3940;DHT22;1984;48.312;9.244;2022-12-31T17:02:19;11.10;99.90
3940;DHT22;1984;48.312;9.244;2022-12-31T17:04:48;11.10;99.90
3940;DHT22;1984;48.312;9.244;2022-12-31T17:07:39;11.10;99.90
3940;DHT22;1984;48.312;9.244;2022-12-31T17:12:34;11.00;99.90
3940;DHT22;1984;48.312;9.244;2022-12-31T17:15:02;11.00;99.90
3940;DHT22;1984;48.312;9.244;2022-12-31T17:17:29;11.00;99.90
3940;DHT22;1984;48.312;9.244;2022-12-31T17:19:59;11.00;99.90
3940;DHT22;1984;48.312;9.244;2022-12-31T17:22:33;11.00;99.90
3940;DHT22;1984;48.312;9.244;2022-12-31T17:25:05;11.00;99.90
3940;DHT22;1984;48.312;9.244;2022-12-31T17:27:32;11.00;99.90
3940;DHT22;1984;48.312;9.244;2022-12-31T17:30:20;11.10;99.90
3940;DHT22;1984;48.312;9.244;2022-12-31T17:32:46;11.10;99.90
3940;DHT22;1984;48.312;9.244;2022-12-31T17:35:29;11.10;99.90
3940;DHT22;1984;48.312;9.244;2022-12-31T17:38:26;11.10;99.90
3940;DHT22;1984;48.312;9.244;2022-12-31T17:41:01;11.10;99.90
3940;DHT22;1984;48.312;9.244;2022-12-31T17:43:32;11.10;99.90
3940;DHT22;1984;48.312;9.244;2022-12-31T17:45:58;11.10;99.90
3940;DHT22;1984;48.312;9.244;2022-12-31T17:48:24;11.10;99.90
3940;DHT22;1984;48.312;9.244;2022-12-31T17:50:52;11.10;99.90
3940;DHT22;1984;48.312;9.244;2022-12-31T17:53:18;11.10;99.90
3940;DHT22;1984;48.312;9.244;2022-12-31T17:55:47;11.10;99.90
3940;DHT22;1984;48.312;9.244;2022-12-31T18:00:58;11.00;99.90
3940;DHT22;1984;48.312;9.244;2022-12-31T18:03:23;11.00;99.90
3940;DHT22;1984;48.312;9.244;2022-12-31T18:05:49;11.00;99.90
3940;DHT22;1984;48.312;9.244;2022-12-31T18:08:15;11.00;99.90
3940;DHT22;1984;48.312;9.244;2022-12-31T18:10:41;11.00;99.90
3940;DHT22;1984;48.312;9.244;2022-12-31T18:13:13;10.90;99.90
3940;DHT22;1984;48.312;9.244;2022-12-31T18:15:39;10.90;99.90
3940;DHT22;1984;48.312;9.244;2022-12-31T18:18:27;10.90;99.90
3940;DHT22;1984;48.312;9.244;2022-12-31T18:21:01;10.90;99.90
3940;DHT22;1984;48.312;9.244;2022-12-31T18:23:42;10.90;99.90
3940;DHT22;1984;48.312;9.244;2022-12-31T18:26:16;10.90;99.90
3940;DHT22;1984;48.312;9.244;2022-12-31T18:28:42;10.90;99.90
3940;DHT22;1984;48.312;9.244;2022-12-31T18:31:17;10.90;99.90
3940;DHT22;1984;48.312;9.244;2022-12-31T18:33:43;10.90;99.90
3940;DHT22;1984;48.312;9.244;2022-12-31T18:36:11;10.90;99.90
3940;DHT22;1984;48.312;9.244;2022-12-31T18:38:37;10.90;99.90
3940;DHT22;1984;48.312;9.244;2022-12-31T18:41:04;10.90;99.90
3940;DHT22;1984;48.312;9.244;2022-12-31T18:43:30;10.80;99.90
3940;DHT22;1984;48.312;9.244;2022-12-31T18:45:56;10.80;99.90
3940;DHT22;1984;48.312;9.244;2022-12-31T18:48:22;10.80;99.90
3940;DHT22;1984;48.312;9.244;2022-12-31T18:50:47;10.80;99.90
3940;DHT22;1984;48.312;9.244;2022-12-31T18:53:20;10.80;99.90
3940;DHT22;1984;48.312;9.244;2022-12-31T18:55:52;10.80;99.90
3940;DHT22;1984;48.312;9.244;2022-12-31T18:58:18;10.70;99.90
3940;DHT22;1984;48.312;9.244;2022-12-31T19:00:44;10.70;99.90
3940;DHT22;1984;48.312;9.244;2022-12-31T19:03:18;10.60;99.90
3940;DHT22;1984;48.312;9.244;2022-12-31T19:05:44;10.70;99.90
3940;DHT22;1984;48.312;9.244;2022-12-31T19:08:14;10.60;99.90
3940;DHT22;1984;48.312;9.244;2022-12-31T19:10:40;10.60;99.90
3940;DHT22;1984;48.312;9.244;2022-12-31T19:13:07;10.60;99.90
3940;DHT22;1984;48.312;9.244;2022-12-31T19:15:42;10.60;99.90
3940;DHT22;1984;48.312;9.244;2022-12-31T19:18:07;10.60;99.90
3940;DHT22;1984;48.312;9.244;2022-12-31T19:20:34;10.60;99.90
3940;DHT22;1984;48.312;9.244;2022-12-31T19:23:00;10.60;99.90
3940;DHT22;1984;48.312;9.244;2022-12-31T19:25:33;10.50;99.90
3940;DHT22;1984;48.312;9.244;2022-12-31T19:28:03;10.60;99.90
3940;DHT22;1984;48.312;9.244;2022-12-31T19:30:32;10.50;99.90
3940;DHT22;1984;48.312;9.244;2022-12-31T19:32:58;10.50;99.90
3940;DHT22;1984;48.312;9.244;2022-12-31T19:35:26;10.50;99.90
3940;DHT22;1984;48.312;9.244;2022-12-31T19:37:53;10.50;99.90
3940;DHT22;1984;48.312;9.244;2022-12-31T19:40:25;10.50;99.90
3940;DHT22;1984;48.312;9.244;2022-12-31T19:42:52;10.50;99.90
3940;DHT22;1984;48.312;9.244;2022-12-31T19:45:24;10.50;99.90
3940;DHT22;1984;48.312;9.244;2022-12-31T19:47:51;10.50;99.90
3940;DHT22;1984;48.312;9.244;2022-12-31T19:50:25;10.50;99.90
3940;DHT22;1984;48.312;9.244;2022-12-31T19:52:53;10.60;99.90
3940;DHT22;1984;48.312;9.244;2022-12-31T19:55:20;10.50;99.90
3940;DHT22;1984;48.312;9.244;2022-12-31T19:57:47;10.60;99.90
3940;DHT22;1984;48.312;9.244;2022-12-31T20:00:15;10.50;99.90
3940;DHT22;1984;48.312;9.244;2022-12-31T20:02:42;10.60;99.90
3940;DHT22;1984;48.312;9.244;2022-12-31T20:05:09;10.60;99.90
3940;DHT22;1984;48.312;9.244;2022-12-31T20:07:35;10.60;99.90
3940;DHT22;1984;48.312;9.244;2022-12-31T20:10:01;10.60;99.90
3940;DHT22;1984;48.312;9.244;2022-12-31T20:12:28;10.50;99.90
3940;DHT22;1984;48.312;9.244;2022-12-31T20:14:53;10.50;99.90
3940;DHT22;1984;48.312;9.244;2022-12-31T20:17:19;10.40;99.90
3940;DHT22;1984;48.312;9.244;2022-12-31T20:19:44;10.40;99.90
3940;DHT22;1984;48.312;9.244;2022-12-31T20:22:10;10.40;99.90
3940;DHT22;1984;48.312;9.244;2022-12-31T20:24:36;10.40;99.90
3940;DHT22;1984;48.312;9.244;2022-12-31T20:27:01;10.40;99.90
3940;DHT22;1984;48.312;9.244;2022-12-31T20:29:27;10.30;99.90